»·PEaware :: SAS1960 KLAX-KLAX

SAS1960 :: KLAX-KLAX

FLIGHT INFORMATION

Flight Status: Arrived
Operator:
SAS
More flights by this operator :: More flights under this callsign
Pilot: Jason B. (2095)
Aircraft: Unknown
(B787)
More flights by this aircraft type
Origin: KLAX Los Angeles Intl
United States
Destination: KLAX Los Angeles Intl
United States
More flights between these airports :: More routes between these airports
Route: +SLI
File this flight plan on PilotEdge
Remarks: Sample flight plan
Altitude:
(Current/Filed)
32,000ft
Speed:
(Current/Filed)
115kts
Departed: 17-Jun-13 05:57 PM
Arrived: 17-Jun-13 06:34 PM
Distance/Time
Traveled:
1nm/0:37
Distance/Time
To Go:
Arrived

Flight Plot

Page will automatically refresh every two minutes.


Map Options




Map Legend


Flown Route
Filed Route
Departure Airport
Arrival Airport
Navaid (VOR, NDB)
Fix

Horizontal Profiles

Position Reports

Time Latitude Longitude Heading Altitude Ground
Speed
17-Jun-13 17:44 33.946321 -118.400107 170 137ft 0kts
17-Jun-13 17:45 33.946321 -118.400107 170 137ft 0kts
17-Jun-13 17:46 33.946321 -118.400107 170 137ft 0kts
17-Jun-13 17:47 33.946321 -118.400107 170 137ft 0kts
17-Jun-13 17:48 33.946321 -118.400107 170 137ft 0kts
17-Jun-13 17:49 33.946321 -118.400107 170 137ft 0kts
17-Jun-13 17:50 33.946321 -118.400107 170 138ft 0kts
17-Jun-13 17:51 33.948643 -118.399835 209 138ft 22kts
17-Jun-13 17:52 33.948868 -118.399562 263 137ft 0kts
17-Jun-13 17:53 33.948868 -118.399562 263 137ft 0kts
17-Jun-13 17:54 33.948868 -118.399562 263 137ft 0kts
17-Jun-13 17:55 33.948868 -118.399562 263 137ft 0kts
17-Jun-13 17:56 33.949270 -118.401290 312 138ft 0kts
17-Jun-13 17:57 33.949270 -118.401290 312 138ft 0kts
17-Jun-13 17:58 33.949359 -118.409728 262 137ft 113kts
17-Jun-13 17:59 33.945979 -118.468759 269 2614ft 197kts
17-Jun-13 18:00 33.948045 -118.535392 265 5905ft 201kts
17-Jun-13 18:01 33.929358 -118.605123 212 6969ft 213kts
17-Jun-13 18:02 33.869752 -118.599567 173 5899ft 221kts
17-Jun-13 18:03 33.817623 -118.567916 102 5041ft 236kts
17-Jun-13 18:04 33.821735 -118.488821 83 5013ft 237kts
17-Jun-13 18:05 33.827432 -118.409715 83 5014ft 237kts
17-Jun-13 18:06 33.832777 -118.330334 83 5015ft 237kts
17-Jun-13 18:07 33.838620 -118.251118 83 5012ft 237kts
17-Jun-13 18:08 33.846681 -118.173114 83 4971ft 233kts
17-Jun-13 18:09 33.856135 -118.093739 83 3976ft 226kts
17-Jun-13 18:10 33.894100 -118.047761 353 4023ft 227kts
17-Jun-13 18:11 33.956573 -118.055152 336 3985ft 224kts
17-Jun-13 18:12 33.978334 -118.117541 261 3487ft 208kts
17-Jun-13 18:13 33.972212 -118.186517 260 3484ft 205kts
17-Jun-13 18:14 33.965369 -118.254259 263 3487ft 203kts
17-Jun-13 18:15 33.949870 -118.322320 261 3461ft 198kts
17-Jun-13 18:16 33.934969 -118.399819 259 1000ft 174kts
17-Jun-13 18:17 33.940389 -118.460798 299 3550ft 195kts
17-Jun-13 18:18 34.000054 -118.515375 335 3478ft 334kts
17-Jun-13 18:19 34.095096 -118.557539 326 3131ft 379kts
17-Jun-13 18:20 34.187718 -118.574037 29 3028ft 281kts
17-Jun-13 18:21 34.213873 -118.507814 83 3070ft 214kts
17-Jun-13 18:22 34.223275 -118.436632 83 4310ft 219kts
17-Jun-13 18:23 34.233302 -118.362593 86 4975ft 223kts
17-Jun-13 18:24 34.216353 -118.292939 113 5048ft 217kts
17-Jun-13 18:25 34.182596 -118.233760 133 4996ft 215kts
17-Jun-13 18:26 34.143426 -118.179331 133 5008ft 216kts
17-Jun-13 18:27 34.103976 -118.124515 133 3909ft 216kts
17-Jun-13 18:28 34.053314 -118.098002 163 2982ft 195kts
17-Jun-13 18:29 34.001156 -118.079002 186 2960ft 194kts
17-Jun-13 18:30 33.971394 -118.116136 255 2990ft 195kts
17-Jun-13 18:31 33.959688 -118.190455 259 2986ft 193kts
17-Jun-13 18:32 33.953844 -118.243135 261 2421ft 189kts
17-Jun-13 18:33 33.946491 -118.315255 262 1249ft 182kts
17-Jun-13 18:34 33.940446 -118.374581 262 306ft 162kts
17-Jun-13 18:35 33.935544 -118.419038 257 138ft 39kts
17-Jun-13 18:36 33.934455 -118.419158 114 138ft 0kts
17-Jun-13 18:37 33.932117 -118.415981 90 137ft 7kts
17-Jun-13 18:38 33.932115 -118.415877 91 138ft 0kts
17-Jun-13 18:39 33.932578 -118.414553 77 137ft 8kts
17-Jun-13 18:40 33.933382 -118.409957 80 138ft 39kts
17-Jun-13 18:41 33.934254 -118.397997 98 137ft 0kts

Navigation Log

Ident Type
1. KLAX Airport
2. SLI Navaid
3. KLAX Airport